Kezdőlap
METAR-TAF:

METAR-TAF

Repülőterek :

Szunani nemzetközi repülőtér

Phenjan, Észak-Korea

földrajzi szélesség: 39-02N, földrajzi hosszúság: 125-47E, magasság: 36 m

METAR: hiányzik

Idő: 12:29 (03:59 UTC)

Előrejelzés

A jelentés 6 órával és 59 perccel ezelõtt készült, 21:00 UTC
Az előrejelzés 12-én 00 óra UTC és 12-én 24 óra UTC között érvényes
Északi szél 8 kt
Látótávolság 10 km, vagy több
felhőtlen 1500 m magasságban, és nincs gomolyfelhõ
12-én 12 óra UTC és 12-én 14 óra UTC között fokozatosan kialakuló
Nyugati szél 8 kt
Látótávolság: 7000 m
Szakadozott felhőzet 3000 lábon
12-én 15 óra UTC és 12-én 23 óra UTC között ideiglenes
Látótávolság: 4000 m
Borult 2700 lábon
enyhe havazás

TAF: ZKPY 112100Z 1200/1224 35004MPS CAVOK TX00/1206Z TNM05/1221Z BECMG 1212/1214 26004MPS 7000 BKN030 TEMPO 1215/1223 4000 -SN OVC027

Meteorológiai megfigyelések és előrejelzések több, mint 4000 repülőtéren (METAR és TAF jelentéseket).

A térképen piros és sárga pontok jelzik az elérhető meteorológiai állomásokat.

Mozgassa az egeret a pont fölött, hogy megjelenjen az állomás neve.

Azután kattintson az időjárási megfigyelések és előrejelzések megtekintéséhez.

A térkép megváltoztatása: kattintson a fekete keresztel jelölt zöld gombra ráközelítéshez, a vonallal jelölt zöld gombra távolításhoz, vagy a zöld nyilakra a szomszédos térképek eléréséhez.


METAR-TAF: